Terminal Aerodrome Forecast
Issued by NWS Mt. Holly, NJ

Current Version | Previous Version | Text Only | Print | Product List | Glossary On
Versions: 1 2 3 4 5 6 7 8 9 10 11 12 13 14 15 16 17 18 19 20 21 22 23 24 25 26 27 28
000
FTUS41 KPHI 250500 RRA
TAFPHL
TAF
KPHL 250540Z 2506/2612 30008KT P6SM SCT200
     FM251600 27011G19KT P6SM FEW040
     FM252300 24010KT P6SM SCT050
     FM260300 28010KT P6SM BKN050=

USA.gov is the U.S. government's official web portal to all federal, state and local government web resources and services.